createdAt,value
2018-06-12T00:00:41.788Z,5.3
2018-06-12T00:01:41.708Z,4.9
2018-06-12T00:02:41.703Z,5.0
2018-06-12T00:03:41.738Z,5.1
2018-06-12T00:04:41.732Z,5.4
2018-06-12T00:05:41.700Z,5.1
2018-06-12T00:06:41.716Z,6.6
2018-06-12T00:07:41.707Z,5.4
2018-06-12T00:08:41.981Z,5.7
2018-06-12T00:09:41.704Z,5.7
2018-06-12T00:10:41.972Z,5.7
2018-06-12T00:11:41.697Z,5.2
2018-06-12T00:12:41.692Z,6.0
2018-06-12T00:13:41.938Z,5.6
2018-06-12T00:14:41.768Z,6.2
2018-06-12T00:15:41.685Z,7.1
2018-06-12T00:16:41.711Z,5.9
2018-06-12T00:17:41.997Z,4.9
2018-06-12T00:18:41.707Z,6.4
2018-06-12T00:19:41.739Z,4.7
2018-06-12T00:20:41.708Z,4.8
2018-06-12T00:21:41.711Z,5.9
2018-06-12T00:22:41.756Z,5.7
2018-06-12T00:23:41.725Z,5.2
2018-06-12T00:24:42.048Z,5.7
2018-06-12T00:25:41.714Z,5.5
2018-06-12T00:26:42.097Z,7.0
2018-06-12T00:27:41.728Z,7.1
2018-06-12T00:28:42.049Z,6.3
2018-06-12T00:29:42.016Z,6.1
2018-06-12T00:30:41.768Z,6.4
2018-06-12T00:31:41.751Z,6.3
2018-06-12T00:32:41.739Z,7.4
2018-06-12T00:33:42.026Z,6.2
2018-06-12T00:34:41.753Z,6.3
2018-06-12T00:35:41.729Z,7.3
2018-06-12T00:36:41.738Z,6.8
2018-06-12T00:37:41.796Z,6.7
2018-06-12T00:38:41.749Z,6.5
2018-06-12T00:39:41.772Z,6.3
2018-06-12T00:40:41.783Z,6.9
2018-06-12T00:41:41.754Z,7.7
2018-06-12T00:42:41.747Z,7.2
2018-06-12T00:43:42.061Z,6.1
2018-06-12T00:44:41.776Z,6.6
2018-06-12T00:45:42.075Z,6.8
2018-06-12T00:46:41.809Z,6.9
2018-06-12T00:47:41.783Z,5.9
2018-06-12T00:48:41.788Z,6.8
2018-06-12T00:49:41.788Z,6.5
2018-06-12T00:50:42.106Z,6.5
2018-06-12T00:51:41.813Z,6.3
2018-06-12T00:52:41.786Z,6.8
2018-06-12T00:53:42.109Z,6.7
2018-06-12T00:54:42.082Z,6.6
2018-06-12T00:55:41.769Z,7.4
2018-06-12T00:56:41.776Z,6.6
2018-06-12T00:57:41.814Z,6.2
2018-06-12T00:58:41.792Z,6.7
2018-06-12T00:59:41.816Z,7.6
2018-06-12T01:00:41.869Z,6.3
2018-06-12T01:01:41.809Z,6.4
2018-06-12T01:02:41.804Z,7.7
2018-06-12T01:03:42.124Z,6.6
2018-06-12T01:04:41.887Z,7.0
2018-06-12T01:05:41.865Z,6.9
2018-06-12T01:06:41.785Z,7.6
2018-06-12T01:07:42.128Z,7.8
2018-06-12T01:08:41.839Z,9.0
2018-06-12T01:09:41.784Z,6.9
2018-06-12T01:10:41.845Z,6.8
2018-06-12T01:11:41.761Z,7.1
2018-06-12T01:12:41.809Z,6.7
2018-06-12T01:13:41.815Z,6.9
2018-06-12T01:14:41.882Z,6.8
2018-06-12T01:15:42.105Z,6.4
2018-06-12T01:16:41.838Z,6.8
2018-06-12T01:17:41.876Z,6.2
2018-06-12T01:18:41.828Z,6.6
2018-06-12T01:19:41.812Z,7.1
2018-06-12T01:20:42.113Z,6.6
2018-06-12T01:21:41.816Z,6.2
2018-06-12T01:22:41.877Z,6.2
2018-06-12T01:23:41.826Z,6.8
2018-06-12T01:24:42.114Z,8.7
2018-06-12T01:25:41.852Z,8.0
2018-06-12T01:26:41.835Z,7.0
2018-06-12T01:27:42.112Z,6.7
2018-06-12T01:28:41.820Z,6.8
2018-06-12T01:29:42.165Z,7.1
2018-06-12T01:30:41.975Z,8.3
2018-06-12T01:31:41.920Z,6.7
2018-06-12T01:32:42.201Z,7.3
2018-06-12T01:33:42.161Z,8.0
2018-06-12T01:34:41.841Z,6.4
2018-06-12T01:35:41.890Z,6.6
2018-06-12T01:36:41.849Z,7.3
2018-06-12T01:37:41.821Z,6.6
2018-06-12T01:38:41.849Z,6.4
2018-06-12T01:39:41.877Z,8.2
2018-06-12T01:40:41.848Z,6.4
2018-06-12T01:41:41.921Z,6.8
2018-06-12T01:42:41.825Z,6.8
2018-06-12T01:43:41.819Z,6.6
2018-06-12T01:44:42.173Z,6.5
2018-06-12T01:45:42.199Z,5.9
2018-06-12T01:46:41.849Z,6.6
2018-06-12T01:47:41.950Z,7.3
2018-06-12T01:48:41.929Z,7.5
2018-06-12T01:49:41.912Z,6.2
2018-06-12T01:50:42.196Z,7.5
2018-06-12T01:51:41.955Z,7.9
2018-06-12T01:52:41.901Z,6.5
2018-06-12T01:53:41.856Z,7.0
2018-06-12T01:54:42.215Z,6.6
2018-06-12T01:55:41.921Z,6.9
2018-06-12T01:56:41.870Z,8.5
2018-06-12T01:57:41.920Z,8.4
2018-06-12T01:58:41.873Z,7.2
2018-06-12T01:59:42.193Z,6.4
2018-06-12T02:00:42.208Z,6.8
2018-06-12T02:01:41.969Z,6.8
2018-06-12T02:02:41.913Z,8.3
2018-06-12T02:03:41.899Z,7.1
2018-06-12T02:04:41.913Z,6.5
2018-06-12T02:05:42.239Z,8.2
2018-06-12T02:06:41.936Z,7.5
2018-06-12T02:07:41.928Z,6.6
2018-06-12T02:08:41.970Z,6.5
2018-06-12T02:09:42.165Z,6.9
2018-06-12T02:10:42.017Z,6.6
2018-06-12T02:11:42.225Z,6.6
2018-06-12T02:12:41.986Z,6.3
2018-06-12T02:13:41.913Z,6.7
2018-06-12T02:14:41.939Z,6.8
2018-06-12T02:15:41.947Z,6.8
2018-06-12T02:16:41.918Z,6.8
2018-06-12T02:17:42.187Z,7.0
2018-06-12T02:18:41.906Z,7.1
2018-06-12T02:19:42.027Z,6.7
2018-06-12T02:20:42.245Z,8.8
2018-06-12T02:21:41.973Z,8.4
2018-06-12T02:22:41.929Z,6.6
2018-06-12T02:23:42.212Z,8.7
2018-06-12T02:24:42.232Z,7.5
2018-06-12T02:25:41.951Z,7.4
2018-06-12T02:26:42.267Z,6.8
2018-06-12T02:27:42.562Z,6.7
2018-06-12T02:28:42.345Z,7.6
2018-06-12T02:29:41.970Z,6.9
2018-06-12T02:30:42.291Z,6.3
2018-06-12T02:31:42.088Z,6.7
2018-06-12T02:32:42.009Z,6.5
2018-06-12T02:33:42.306Z,7.6
2018-06-12T02:34:42.365Z,6.6
2018-06-12T02:35:41.954Z,6.5
2018-06-12T02:36:42.322Z,8.0
2018-06-12T02:37:41.984Z,7.6
2018-06-12T02:38:42.215Z,8.0
2018-06-12T02:39:42.276Z,7.2
2018-06-12T02:40:41.969Z,7.4
2018-06-12T02:41:41.996Z,7.9
2018-06-12T02:42:41.948Z,7.3
2018-06-12T02:43:42.027Z,7.0
2018-06-12T02:44:42.079Z,6.6
2018-06-12T02:45:42.263Z,7.0
2018-06-12T02:46:42.022Z,8.5
2018-06-12T02:47:42.046Z,7.1
2018-06-12T02:48:41.993Z,8.1
2018-06-12T02:49:42.110Z,7.4
2018-06-12T02:50:42.248Z,6.9
2018-06-12T02:51:42.001Z,7.7
2018-06-12T02:52:42.021Z,7.7
2018-06-12T02:53:42.114Z,7.2
2018-06-12T02:54:42.302Z,8.1
2018-06-12T02:55:42.307Z,7.2
2018-06-12T02:56:42.075Z,7.8
2018-06-12T02:57:42.350Z,7.4
2018-06-12T02:58:42.073Z,7.5
2018-06-12T02:59:42.009Z,8.0
2018-06-12T03:00:42.012Z,8.5
2018-06-12T03:01:42.112Z,7.5
2018-06-12T03:02:42.377Z,7.7
2018-06-12T03:03:42.043Z,8.0
2018-06-12T03:04:42.075Z,8.8
2018-06-12T03:05:42.081Z,8.7
2018-06-12T03:06:42.300Z,9.1
2018-06-12T03:07:42.325Z,7.9
2018-06-12T03:08:42.003Z,8.6
2018-06-12T03:09:42.045Z,9.0
2018-06-12T03:10:42.346Z,8.3
2018-06-12T03:11:42.336Z,8.8
2018-06-12T03:12:42.095Z,9.6
2018-06-12T03:13:42.296Z,8.4
2018-06-12T03:14:41.995Z,8.4
2018-06-12T03:15:42.007Z,9.3
2018-06-12T03:16:42.348Z,10.0
2018-06-12T03:17:42.203Z,9.4
2018-06-12T03:18:42.032Z,8.2
2018-06-12T03:19:42.045Z,8.2
2018-06-12T03:20:42.034Z,8.2
2018-06-12T03:21:42.056Z,8.1
2018-06-12T03:22:42.057Z,7.5
2018-06-12T03:23:42.081Z,8.0
2018-06-12T03:24:42.027Z,8.2
2018-06-12T03:25:42.101Z,8.1
2018-06-12T03:26:42.062Z,8.3
2018-06-12T03:27:42.058Z,8.3
2018-06-12T03:28:42.128Z,8.3
2018-06-12T03:29:42.134Z,7.7
2018-06-12T03:30:42.175Z,8.0
2018-06-12T03:31:42.121Z,8.6
2018-06-12T03:32:42.142Z,7.5
2018-06-12T03:33:42.092Z,8.2
2018-06-12T03:34:42.117Z,8.1
2018-06-12T03:35:42.398Z,8.2
2018-06-12T03:36:42.095Z,8.6
2018-06-12T03:37:42.102Z,7.9
2018-06-12T03:38:42.110Z,9.0
2018-06-12T03:39:42.416Z,9.4
2018-06-12T03:40:42.159Z,8.6
2018-06-12T03:41:42.110Z,8.7
2018-06-12T03:42:42.178Z,8.9
2018-06-12T03:43:58.554Z,8.4
2018-06-12T03:44:42.401Z,8.8
2018-06-12T03:45:42.096Z,9.1
2018-06-12T03:46:42.429Z,9.9
2018-06-12T03:47:42.415Z,8.1
2018-06-12T03:48:42.205Z,9.5
2018-06-12T03:49:42.208Z,8.9
2018-06-12T03:50:42.093Z,9.2
2018-06-12T03:51:42.118Z,8.8
2018-06-12T03:52:42.173Z,9.2
2018-06-12T03:53:42.151Z,8.7
2018-06-12T03:54:42.399Z,8.9
2018-06-12T03:55:42.171Z,9.0
2018-06-12T03:56:42.141Z,9.8
2018-06-12T03:57:42.132Z,9.4
2018-06-12T03:58:42.123Z,9.1
2018-06-12T03:59:42.446Z,9.7
2018-06-12T04:00:42.187Z,8.5
2018-06-12T04:01:42.107Z,8.7
2018-06-12T04:02:42.494Z,8.5
2018-06-12T04:03:42.106Z,9.3
2018-06-12T04:04:42.174Z,8.1
2018-06-12T04:05:42.460Z,8.9
2018-06-12T04:06:42.509Z,8.7
2018-06-12T04:07:42.297Z,8.6
2018-06-12T04:08:42.179Z,8.6
2018-06-12T04:09:42.444Z,8.4
2018-06-12T04:10:42.202Z,8.8
2018-06-12T04:11:42.492Z,8.4
2018-06-12T04:12:42.179Z,8.3
2018-06-12T04:13:42.172Z,9.3
2018-06-12T04:14:42.539Z,8.4
2018-06-12T04:15:42.133Z,8.4
2018-06-12T04:16:42.216Z,8.0
2018-06-12T04:17:42.415Z,8.8
2018-06-12T04:18:42.229Z,8.5
2018-06-12T04:19:42.299Z,8.0
2018-06-12T04:20:42.220Z,7.8
2018-06-12T04:21:42.204Z,8.4
2018-06-12T04:22:42.190Z,7.8
2018-06-12T04:23:42.549Z,8.9
2018-06-12T04:24:42.199Z,7.8
2018-06-12T04:25:42.502Z,8.3
2018-06-12T04:26:42.292Z,7.9
2018-06-12T04:27:42.226Z,8.1
2018-06-12T04:28:42.490Z,9.2
2018-06-12T04:29:42.184Z,8.0
2018-06-12T04:30:42.553Z,8.1
2018-06-12T04:31:42.440Z,8.5
2018-06-12T04:32:42.208Z,8.2
2018-06-12T04:33:42.233Z,8.6
2018-06-12T04:34:42.225Z,8.3
2018-06-12T04:35:42.483Z,8.4
2018-06-12T04:36:42.210Z,8.3
2018-06-12T04:37:42.209Z,8.6
2018-06-12T04:38:42.266Z,8.6
2018-06-12T04:39:42.315Z,8.5
2018-06-12T04:40:42.233Z,8.5
2018-06-12T04:41:42.245Z,8.0
2018-06-12T04:42:42.233Z,9.5
2018-06-12T04:43:42.271Z,8.6
2018-06-12T04:44:42.193Z,7.8
2018-06-12T04:45:42.230Z,8.4
2018-06-12T04:46:42.179Z,9.9
2018-06-12T04:47:42.218Z,9.4
2018-06-12T04:48:42.235Z,9.0
2018-06-12T04:49:42.556Z,8.8
2018-06-12T04:50:42.561Z,8.7
2018-06-12T04:51:42.491Z,8.6
2018-06-12T04:52:42.524Z,8.8
2018-06-12T04:53:42.227Z,8.9
2018-06-12T04:54:42.572Z,8.6
2018-06-12T04:55:42.531Z,9.7
2018-06-12T04:56:42.291Z,9.0
2018-06-12T04:57:42.269Z,9.2
2018-06-12T04:58:42.253Z,15.4
2018-06-12T04:59:42.537Z,9.4
2018-06-12T05:00:42.255Z,9.1
2018-06-12T05:01:42.292Z,9.2
2018-06-12T05:02:42.223Z,8.8
2018-06-12T05:03:42.571Z,10.3
2018-06-12T05:04:42.278Z,9.0
2018-06-12T05:05:42.596Z,8.4
2018-06-12T05:06:42.271Z,9.0
2018-06-12T05:07:42.420Z,10.1
2018-06-12T05:08:42.516Z,8.8
2018-06-12T05:09:42.919Z,8.8
2018-06-12T05:10:42.552Z,10.1
2018-06-12T05:11:42.423Z,8.9
2018-06-12T05:12:42.758Z,8.9
2018-06-12T05:13:42.738Z,9.0
2018-06-12T05:14:43.054Z,10.9
2018-06-12T05:15:42.340Z,8.5
2018-06-12T05:16:42.289Z,9.2
2018-06-12T05:17:42.624Z,8.8
2018-06-12T05:18:42.276Z,9.7
2018-06-12T05:19:42.353Z,9.2
2018-06-12T05:20:42.532Z,7.9
2018-06-12T05:21:42.299Z,7.4
2018-06-12T05:22:42.649Z,7.7
2018-06-12T05:23:42.322Z,7.5
2018-06-12T05:24:42.629Z,7.9
2018-06-12T05:25:42.403Z,9.4
2018-06-12T05:26:42.286Z,7.9
2018-06-12T05:27:42.451Z,8.2
2018-06-12T05:28:42.606Z,7.9
2018-06-12T05:29:42.269Z,8.4
2018-06-12T05:30:42.287Z,9.0
2018-06-12T05:31:42.312Z,7.1
2018-06-12T05:32:42.307Z,7.7
2018-06-12T05:33:42.362Z,10.1
2018-06-12T05:34:42.292Z,7.0
2018-06-12T05:35:42.666Z,7.4
2018-06-12T05:36:42.362Z,7.0
2018-06-12T05:37:42.523Z,6.3
2018-06-12T05:38:42.516Z,6.8
2018-06-12T05:39:42.380Z,6.7
2018-06-12T05:40:42.332Z,6.4
2018-06-12T05:41:42.313Z,6.7
2018-06-12T05:42:42.333Z,6.4
2018-06-12T05:43:42.350Z,6.7
2018-06-12T05:44:42.637Z,6.6
2018-06-12T05:45:42.317Z,6.5
2018-06-12T05:46:42.662Z,6.2
2018-06-12T05:47:42.307Z,6.0
2018-06-12T05:48:42.303Z,6.1
2018-06-12T05:49:42.381Z,6.9
2018-06-12T05:50:42.352Z,6.6
2018-06-12T05:51:42.354Z,6.5
2018-06-12T05:52:42.581Z,6.4
2018-06-12T05:53:42.324Z,6.6
2018-06-12T05:54:42.358Z,6.0
2018-06-12T05:55:42.401Z,6.2
2018-06-12T05:56:42.338Z,6.7
2018-06-12T05:57:42.335Z,6.0
2018-06-12T05:58:42.404Z,6.3
2018-06-12T05:59:42.399Z,6.2
2018-06-12T06:00:42.410Z,5.7
2018-06-12T06:01:42.681Z,6.3
2018-06-12T06:02:42.699Z,5.8
2018-06-12T06:03:42.407Z,6.0
2018-06-12T06:04:42.408Z,5.9
2018-06-12T06:05:42.396Z,5.9
2018-06-12T06:06:42.332Z,5.8
2018-06-12T06:07:42.420Z,6.3
2018-06-12T06:08:42.360Z,5.6
2018-06-12T06:09:42.733Z,6.0
2018-06-12T06:10:42.528Z,5.8
2018-06-12T06:11:42.387Z,5.7
2018-06-12T06:12:42.428Z,5.5
2018-06-12T06:13:42.660Z,5.7
2018-06-12T06:14:42.763Z,5.1
2018-06-12T06:15:42.442Z,5.3
2018-06-12T06:16:42.415Z,5.8
2018-06-12T06:17:42.392Z,5.3
2018-06-12T06:18:42.371Z,5.6
2018-06-12T06:19:42.721Z,5.5
2018-06-12T06:20:42.415Z,5.6
2018-06-12T06:21:42.419Z,5.3
2018-06-12T06:22:42.490Z,5.7
2018-06-12T06:23:42.397Z,5.5
2018-06-12T06:24:42.405Z,6.0
2018-06-12T06:25:42.428Z,6.6
2018-06-12T06:26:42.403Z,6.8
2018-06-12T06:27:42.361Z,8.5
2018-06-12T06:28:42.398Z,9.5
2018-06-12T06:29:42.494Z,10.1
2018-06-12T06:30:42.438Z,9.8
2018-06-12T06:31:42.376Z,9.1
2018-06-12T06:32:42.394Z,10.5
2018-06-12T06:33:42.732Z,10.4
2018-06-12T06:34:42.653Z,10.0
2018-06-12T06:35:42.715Z,10.2
2018-06-12T06:36:42.440Z,10.3
2018-06-12T06:37:42.413Z,10.1
2018-06-12T06:38:42.770Z,10.9
2018-06-12T06:39:42.433Z,10.0
2018-06-12T06:40:42.468Z,9.9
2018-06-12T06:41:42.510Z,10.4
2018-06-12T06:42:42.447Z,10.2
2018-06-12T06:43:42.444Z,9.7
2018-06-12T06:44:42.463Z,9.6
2018-06-12T06:45:42.470Z,9.7
2018-06-12T06:46:42.462Z,9.9
2018-06-12T06:47:42.516Z,10.4
2018-06-12T06:48:42.483Z,9.9
2018-06-12T06:49:42.790Z,10.4
2018-06-12T06:50:42.771Z,9.6
2018-06-12T06:51:42.480Z,10.3
2018-06-12T06:52:42.483Z,9.9
2018-06-12T06:53:42.532Z,10.8
2018-06-12T06:54:42.473Z,10.2
2018-06-12T06:55:42.481Z,10.1
2018-06-12T06:56:42.743Z,14.6
2018-06-12T06:57:42.496Z,10.4
2018-06-12T06:58:42.711Z,10.8
2018-06-12T06:59:42.798Z,11.4
2018-06-12T07:00:42.458Z,10.7
2018-06-12T07:01:42.778Z,10.9
2018-06-12T07:02:42.502Z,11.0
2018-06-12T07:03:42.465Z,12.4
2018-06-12T07:04:42.469Z,10.7
2018-06-12T07:05:42.449Z,11.2
2018-06-12T07:06:42.743Z,11.5
2018-06-12T07:07:42.492Z,11.2
2018-06-12T07:08:42.419Z,11.3
2018-06-12T07:09:42.747Z,11.4
2018-06-12T07:10:42.993Z,11.8
2018-06-12T07:11:42.862Z,11.8
2018-06-12T07:12:43.167Z,12.8
2018-06-12T07:13:42.714Z,11.4
2018-06-12T07:14:43.173Z,11.9
2018-06-12T07:15:42.811Z,12.1
2018-06-12T07:16:43.554Z,11.9
2018-06-12T07:17:42.768Z,11.8
2018-06-12T07:18:42.494Z,11.8
2018-06-12T07:19:42.801Z,12.9
2018-06-12T07:20:42.562Z,11.9
2018-06-12T07:21:42.527Z,11.8
2018-06-12T07:22:42.568Z,12.5
2018-06-12T07:23:43.227Z,12.8
2018-06-12T07:24:42.659Z,12.8
2018-06-12T07:25:42.768Z,13.1
2018-06-12T07:26:43.151Z,12.9
2018-06-12T07:27:42.551Z,12.7
2018-06-12T07:28:43.385Z,13.3
2018-06-12T07:29:43.202Z,12.8
2018-06-12T07:30:43.799Z,13.7
2018-06-12T07:31:43.628Z,13.8
2018-06-12T07:32:43.673Z,13.3
2018-06-12T07:33:43.554Z,12.1
2018-06-12T07:34:43.516Z,12.8
2018-06-12T07:35:43.467Z,13.0
2018-06-12T07:36:43.634Z,13.2
2018-06-12T07:37:42.919Z,12.6
2018-06-12T07:38:43.335Z,13.4
2018-06-12T07:39:42.884Z,13.3
2018-06-12T07:40:43.203Z,13.5
2018-06-12T07:41:43.910Z,14.2
2018-06-12T07:42:43.284Z,13.7
2018-06-12T07:43:43.970Z,13.5
2018-06-12T07:44:43.122Z,12.8
2018-06-12T07:45:44.004Z,12.8
2018-06-12T07:46:42.919Z,12.7
2018-06-12T07:47:43.656Z,13.6
2018-06-12T07:48:43.471Z,13.6
2018-06-12T07:49:43.420Z,12.6
2018-06-12T07:50:43.840Z,13.4
2018-06-12T07:51:42.927Z,12.3
2018-06-12T07:52:43.682Z,11.9
2018-06-12T07:53:43.431Z,11.4
2018-06-12T07:54:43.210Z,11.1
2018-06-12T07:55:43.336Z,11.0
2018-06-12T07:56:42.883Z,10.9
2018-06-12T07:57:43.419Z,11.3
2018-06-12T07:58:43.214Z,10.7
2018-06-12T07:59:43.210Z,12.0
2018-06-12T08:00:43.658Z,10.4
2018-06-12T08:01:43.608Z,10.5
2018-06-12T08:02:44.027Z,10.2
2018-06-12T08:03:43.797Z,10.4
2018-06-12T08:04:43.214Z,9.9
2018-06-12T08:05:43.558Z,10.2
2018-06-12T08:06:42.810Z,9.4
2018-06-12T08:07:44.228Z,8.3
2018-06-12T08:08:43.309Z,10.7
2018-06-12T08:09:43.335Z,14.0
2018-06-12T08:10:43.428Z,12.1
2018-06-12T08:11:43.351Z,14.6
2018-06-12T08:12:42.978Z,17.7
2018-06-12T08:13:43.924Z,17.5
2018-06-12T08:14:42.852Z,17.3
2018-06-12T08:15:44.666Z,17.5
2018-06-12T08:16:43.990Z,18.6
2018-06-12T08:17:43.313Z,20.1
2018-06-12T08:18:43.527Z,20.6
2018-06-12T08:19:43.413Z,29.5
2018-06-12T08:20:43.425Z,23.9
2018-06-12T08:21:43.051Z,21.4
2018-06-12T08:22:43.421Z,24.4
2018-06-12T08:23:44.230Z,23.4
2018-06-12T08:24:43.169Z,21.5
2018-06-12T08:25:43.549Z,21.7
2018-06-12T08:26:43.239Z,22.0
2018-06-12T08:27:42.809Z,25.3
2018-06-12T08:28:43.308Z,25.1
2018-06-12T08:29:43.418Z,22.3
2018-06-12T08:30:43.357Z,21.3
2018-06-12T08:31:43.742Z,22.2
2018-06-12T08:32:43.123Z,20.3
2018-06-12T08:33:42.901Z,21.4
2018-06-12T08:35:42.863Z,20.4
2018-06-12T08:36:42.939Z,19.7
2018-06-12T08:37:43.703Z,20.1
2018-06-12T08:38:43.834Z,18.5
2018-06-12T08:39:43.491Z,18.7
2018-06-12T08:40:43.447Z,20.9
2018-06-12T08:41:43.492Z,20.0
2018-06-12T08:42:43.548Z,18.4
2018-06-12T08:43:42.901Z,17.9
2018-06-12T08:44:43.390Z,17.5
2018-06-12T08:45:42.739Z,19.0
2018-06-12T08:46:44.089Z,17.0
2018-06-12T08:47:42.679Z,16.7
2018-06-12T08:48:42.997Z,18.0
2018-06-12T08:49:42.692Z,17.7
2018-06-12T08:50:42.731Z,18.2
2018-06-12T08:51:42.722Z,17.2
2018-06-12T08:52:43.058Z,17.6
2018-06-12T08:53:43.047Z,18.8
2018-06-12T08:54:42.684Z,17.4
2018-06-12T08:55:43.074Z,18.7
2018-06-12T08:56:42.707Z,18.2
2018-06-12T08:57:43.004Z,17.6
2018-06-12T08:58:42.757Z,18.2
2018-06-12T08:59:42.729Z,17.8
2018-06-12T09:00:42.992Z,18.1
2018-06-12T09:01:42.726Z,18.1
2018-06-12T09:02:42.789Z,18.1
2018-06-12T09:03:42.670Z,19.2
2018-06-12T09:04:43.028Z,17.2
2018-06-12T09:05:43.045Z,18.4
2018-06-12T09:06:42.781Z,18.6
2018-06-12T09:07:42.725Z,18.4
2018-06-12T09:08:42.706Z,18.3
2018-06-12T09:09:42.700Z,18.6
2018-06-12T09:10:42.705Z,19.1
2018-06-12T09:11:42.695Z,21.6
2018-06-12T09:12:42.685Z,19.7
2018-06-12T09:13:43.109Z,20.6
2018-06-12T09:14:42.668Z,19.1
2018-06-12T09:15:42.741Z,19.4
2018-06-12T09:16:42.750Z,18.8
2018-06-12T09:17:42.742Z,19.4
2018-06-12T09:18:42.749Z,19.2
2018-06-12T09:19:43.064Z,18.8
2018-06-12T09:20:42.744Z,18.5
2018-06-12T09:21:42.738Z,18.3
2018-06-12T09:22:42.797Z,19.8
2018-06-12T09:23:43.061Z,19.2
2018-06-12T09:24:42.737Z,20.0
2018-06-12T09:25:43.125Z,19.3
2018-06-12T09:26:42.704Z,19.3
2018-06-12T09:27:42.816Z,19.5
2018-06-12T09:28:42.785Z,20.2
2018-06-12T09:29:42.742Z,20.2
2018-06-12T09:30:43.119Z,18.6
2018-06-12T09:31:43.088Z,18.6
2018-06-12T09:32:42.814Z,18.8
2018-06-12T09:33:42.824Z,19.8
2018-06-12T09:34:43.177Z,19.4
2018-06-12T09:35:42.849Z,19.5
2018-06-12T09:36:43.169Z,19.7
2018-06-12T09:37:42.818Z,20.6
2018-06-12T09:38:42.804Z,20.0
2018-06-12T09:39:42.795Z,21.5
2018-06-12T09:40:43.114Z,19.4
2018-06-12T09:41:42.825Z,19.9
2018-06-12T09:42:42.832Z,19.1
2018-06-12T09:43:43.048Z,19.6
2018-06-12T09:44:42.817Z,19.9
2018-06-12T09:45:42.733Z,19.5
2018-06-12T09:46:42.756Z,19.9
2018-06-12T09:47:42.768Z,19.3
2018-06-12T09:48:42.791Z,19.9
2018-06-12T09:49:42.795Z,20.3
2018-06-12T09:50:42.860Z,19.0
2018-06-12T09:51:42.728Z,19.1
2018-06-12T09:52:42.904Z,18.7
2018-06-12T09:53:43.039Z,19.1
2018-06-12T09:54:43.048Z,18.9
2018-06-12T09:55:42.796Z,18.7
2018-06-12T09:56:42.806Z,18.4
2018-06-12T09:57:43.183Z,18.9
2018-06-12T09:58:42.795Z,19.1
2018-06-12T09:59:42.813Z,18.4
2018-06-12T10:00:42.806Z,17.4
2018-06-12T10:01:42.761Z,18.4
2018-06-12T10:02:43.073Z,19.3
2018-06-12T10:03:42.797Z,18.6
2018-06-12T10:04:42.799Z,17.8
2018-06-12T10:05:42.829Z,19.1
2018-06-12T10:06:42.818Z,16.6
2018-06-12T10:07:42.809Z,16.0
2018-06-12T10:08:42.797Z,18.0
2018-06-12T10:09:42.787Z,18.1
2018-06-12T10:10:42.828Z,16.5
2018-06-12T10:11:42.846Z,16.4
2018-06-12T10:12:42.832Z,14.5
2018-06-12T10:13:42.845Z,14.7
2018-06-12T10:14:42.774Z,14.8
2018-06-12T10:15:42.837Z,14.5
2018-06-12T10:16:43.276Z,14.8
2018-06-12T10:17:42.870Z,14.1
2018-06-12T10:18:42.829Z,14.2
2018-06-12T10:19:42.860Z,14.2
2018-06-12T10:20:43.133Z,14.1
2018-06-12T10:21:42.847Z,14.6
2018-06-12T10:22:42.941Z,14.5
2018-06-12T10:23:43.158Z,15.2
2018-06-12T10:24:42.886Z,14.7
2018-06-12T10:25:42.971Z,13.9
2018-06-12T10:26:43.209Z,14.7
2018-06-12T10:27:42.895Z,14.8
2018-06-12T10:28:42.886Z,15.4
2018-06-12T10:29:42.906Z,14.2
2018-06-12T10:30:42.849Z,14.4
2018-06-12T10:31:43.239Z,14.7
2018-06-12T10:32:42.844Z,14.3
2018-06-12T10:33:42.886Z,15.4
2018-06-12T10:34:42.911Z,15.7
2018-06-12T10:35:42.847Z,14.6
2018-06-12T10:36:43.140Z,15.1
2018-06-12T10:37:42.911Z,14.7
2018-06-12T10:38:42.873Z,14.7
2018-06-12T10:39:42.906Z,14.2
2018-06-12T10:40:43.143Z,14.1
2018-06-12T10:41:42.954Z,14.3
2018-06-12T10:42:42.928Z,13.1
2018-06-12T10:43:42.986Z,13.5
2018-06-12T10:44:42.883Z,13.7
2018-06-12T10:45:42.885Z,13.6
2018-06-12T10:46:43.218Z,13.7
2018-06-12T10:47:42.957Z,13.8
2018-06-12T10:48:42.926Z,16.4
2018-06-12T10:49:42.927Z,14.9
2018-06-12T10:50:43.203Z,14.0
2018-06-12T10:51:42.902Z,14.3
2018-06-12T10:52:42.919Z,14.4
2018-06-12T10:53:42.910Z,15.3
2018-06-12T10:54:43.226Z,13.9
2018-06-12T10:55:42.879Z,14.3
2018-06-12T10:56:42.900Z,14.3
2018-06-12T10:57:42.868Z,15.1
2018-06-12T10:58:42.964Z,15.1
2018-06-12T10:59:42.902Z,14.8
2018-06-12T11:00:42.929Z,15.6
2018-06-12T11:01:42.918Z,14.2
2018-06-12T11:02:43.046Z,15.7
2018-06-12T11:03:42.982Z,16.3
2018-06-12T11:04:43.396Z,16.4
2018-06-12T11:05:43.432Z,16.7
2018-06-12T11:06:43.096Z,16.7
2018-06-12T11:07:43.063Z,16.3
2018-06-12T11:08:43.852Z,16.8
2018-06-12T11:09:44.473Z,18.1
2018-06-12T11:10:44.386Z,16.9
2018-06-12T11:11:43.159Z,16.9
2018-06-12T11:12:43.102Z,16.3
2018-06-12T11:13:43.176Z,17.5
2018-06-12T11:14:42.957Z,18.2
2018-06-12T11:15:42.910Z,19.2
2018-06-12T11:16:42.955Z,19.1
2018-06-12T11:17:43.218Z,25.9
2018-06-12T11:18:42.908Z,22.6
2018-06-12T11:19:43.144Z,22.9
2018-06-12T11:20:43.101Z,22.4
2018-06-12T11:21:42.953Z,23.0
2018-06-12T11:22:42.965Z,21.3
2018-06-12T11:23:42.891Z,27.1
2018-06-12T11:24:43.056Z,21.5
2018-06-12T11:25:42.889Z,27.0
2018-06-12T11:26:42.910Z,27.9
2018-06-12T11:27:42.942Z,22.9
2018-06-12T11:28:42.943Z,23.6
2018-06-12T11:29:42.878Z,28.5
2018-06-12T11:30:42.934Z,25.8
2018-06-12T11:31:42.897Z,24.5
2018-06-12T11:32:42.918Z,23.2
2018-06-12T11:33:42.931Z,23.2
2018-06-12T11:34:42.911Z,21.8
2018-06-12T11:35:42.923Z,22.7
2018-06-12T11:36:42.865Z,21.6
2018-06-12T11:37:42.888Z,23.4
2018-06-12T11:38:42.919Z,26.8
2018-06-12T11:39:42.976Z,22.2
2018-06-12T11:40:42.948Z,22.9
2018-06-12T11:41:42.906Z,23.4
2018-06-12T11:42:42.924Z,22.8
2018-06-12T11:43:43.023Z,22.2
2018-06-12T11:44:42.913Z,22.7
2018-06-12T11:45:42.904Z,22.4
2018-06-12T11:46:42.926Z,23.9
2018-06-12T11:47:43.206Z,22.2
2018-06-12T11:48:42.977Z,21.5
2018-06-12T11:49:42.936Z,23.9
2018-06-12T11:50:42.915Z,21.8
2018-06-12T11:51:43.226Z,21.4
2018-06-12T11:52:43.198Z,21.6
2018-06-12T11:53:42.961Z,20.3
2018-06-12T11:54:42.960Z,20.3
2018-06-12T11:55:43.208Z,21.3
2018-06-12T11:56:43.260Z,20.7
2018-06-12T11:57:43.286Z,20.2
2018-06-12T11:58:42.960Z,21.8
2018-06-12T11:59:43.730Z,20.3
2018-06-12T12:00:43.098Z,20.7
2018-06-12T12:01:42.982Z,20.5
2018-06-12T12:02:42.954Z,20.2
2018-06-12T12:03:42.989Z,20.0
2018-06-12T12:04:43.001Z,20.5
2018-06-12T12:05:43.325Z,20.8
2018-06-12T12:06:42.934Z,21.2
2018-06-12T12:07:42.997Z,20.5
2018-06-12T12:08:43.283Z,20.9
2018-06-12T12:09:42.977Z,21.8
2018-06-12T12:10:42.981Z,20.9
2018-06-12T12:11:42.988Z,21.2
2018-06-12T12:12:42.971Z,20.1
2018-06-12T12:13:42.991Z,20.6
2018-06-12T12:14:43.269Z,20.4
2018-06-12T12:15:43.291Z,20.8
2018-06-12T12:16:43.359Z,20.4
2018-06-12T12:17:43.273Z,21.6
2018-06-12T12:18:43.011Z,19.6
2018-06-12T12:19:43.043Z,23.2
2018-06-12T12:20:43.092Z,26.6
2018-06-12T12:21:43.306Z,22.5
2018-06-12T12:22:43.302Z,26.7
2018-06-12T12:23:42.961Z,22.1
2018-06-12T12:24:43.039Z,21.8
2018-06-12T12:25:43.024Z,21.5
2018-06-12T12:26:43.299Z,21.5
2018-06-12T12:27:43.051Z,22.2
2018-06-12T12:28:43.079Z,20.4
2018-06-12T12:29:43.041Z,19.9
2018-06-12T12:30:43.314Z,19.5
2018-06-12T12:31:43.048Z,19.6
2018-06-12T12:32:43.100Z,17.8
2018-06-12T12:33:42.974Z,19.6
2018-06-12T12:34:43.035Z,19.8
2018-06-12T12:35:43.320Z,16.8
2018-06-12T12:36:42.989Z,17.2
2018-06-12T12:37:43.015Z,16.7
2018-06-12T12:38:43.049Z,18.7
2018-06-12T12:39:43.024Z,17.0
2018-06-12T12:40:43.062Z,15.6
2018-06-12T12:41:43.082Z,15.8
2018-06-12T12:42:43.054Z,16.0
2018-06-12T12:43:43.130Z,15.8
2018-06-12T12:44:43.365Z,16.9
2018-06-12T12:45:43.040Z,15.6
2018-06-12T12:46:43.361Z,15.5
2018-06-12T12:47:43.025Z,16.3
2018-06-12T12:48:43.354Z,15.7
2018-06-12T12:49:43.055Z,15.2
2018-06-12T12:50:43.294Z,14.6
2018-06-12T12:51:43.021Z,15.7
2018-06-12T12:52:43.062Z,14.6
2018-06-12T12:53:43.355Z,14.6
2018-06-12T12:54:43.041Z,13.7
2018-06-12T12:55:43.304Z,14.4
2018-06-12T12:56:43.024Z,14.9
2018-06-12T12:57:43.130Z,13.9
2018-06-12T12:58:43.025Z,15.3
2018-06-12T12:59:43.078Z,15.3
2018-06-12T13:00:43.062Z,14.2
2018-06-12T13:01:43.049Z,13.5
2018-06-12T13:02:43.021Z,13.5
2018-06-12T13:03:43.370Z,13.1
2018-06-12T13:04:43.057Z,13.2
2018-06-12T13:05:43.078Z,14.1
2018-06-12T13:06:43.049Z,13.1
2018-06-12T13:07:43.107Z,13.3
2018-06-12T13:08:43.327Z,13.2
2018-06-12T13:09:43.085Z,13.2
2018-06-12T13:10:43.376Z,13.3
2018-06-12T13:11:43.097Z,13.4
2018-06-12T13:12:43.367Z,13.9
2018-06-12T13:13:43.063Z,13.5
2018-06-12T13:14:43.037Z,13.0
2018-06-12T13:15:43.070Z,12.6
2018-06-12T13:16:43.096Z,13.3
2018-06-12T13:17:43.402Z,13.5
2018-06-12T13:18:43.105Z,12.8
2018-06-12T13:19:43.112Z,13.3
2018-06-12T13:20:43.437Z,12.9
2018-06-12T13:21:43.082Z,13.2
2018-06-12T13:22:43.082Z,12.5
2018-06-12T13:23:43.415Z,13.7
2018-06-12T13:24:43.086Z,14.0
2018-06-12T13:25:43.129Z,13.4
2018-06-12T13:26:43.177Z,13.7
2018-06-12T13:27:43.070Z,13.9
2018-06-12T13:28:43.459Z,16.2
2018-06-12T13:29:43.095Z,13.6
2018-06-12T13:30:43.091Z,13.0
2018-06-12T13:31:43.083Z,13.4
2018-06-12T13:32:43.128Z,13.1